createdAt,value
2022-11-28T00:01:27.194Z,101467.25
2022-11-28T00:03:56.678Z,101470.09
2022-11-28T00:06:23.934Z,101468.00
2022-11-28T00:08:50.862Z,101458.84
2022-11-28T00:11:17.726Z,101452.00
2022-11-28T00:13:44.988Z,101457.63
2022-11-28T00:16:24.726Z,101449.53
2022-11-28T00:18:52.490Z,101447.53
2022-11-28T00:21:19.390Z,101442.25
2022-11-28T00:23:54.447Z,101431.84
2022-11-28T00:26:25.967Z,101437.91
2022-11-28T00:28:52.879Z,101437.09
2022-11-28T00:31:21.023Z,101433.75
2022-11-28T00:33:49.847Z,101431.41
2022-11-28T00:36:17.006Z,101435.41
2022-11-28T00:38:43.954Z,101426.03
2022-11-28T00:41:14.023Z,101425.91
2022-11-28T00:43:41.791Z,101427.13
2022-11-28T00:46:08.721Z,101425.63
2022-11-28T00:48:35.524Z,101424.22
2022-11-28T00:51:06.220Z,101426.28
2022-11-28T00:53:32.989Z,101414.31
2022-11-28T00:55:59.591Z,101419.31
2022-11-28T00:58:26.157Z,101411.72
2022-11-28T01:00:52.801Z,101418.69
2022-11-28T01:03:19.532Z,101412.69
2022-11-28T01:05:46.251Z,101413.38
2022-11-28T01:08:12.912Z,101406.53
2022-11-28T01:10:42.985Z,101400.34
2022-11-28T01:13:10.172Z,101395.50
2022-11-28T01:15:37.171Z,101388.56
2022-11-28T01:18:03.856Z,101391.22
2022-11-28T01:20:30.436Z,101390.25
2022-11-28T01:22:56.951Z,101390.22
2022-11-28T01:25:23.865Z,101388.72
2022-11-28T01:27:50.652Z,101387.75
2022-11-28T01:30:17.236Z,101389.59
2022-11-28T01:32:43.820Z,101387.25
2022-11-28T01:35:10.689Z,101386.44
2022-11-28T01:37:37.164Z,101382.56
2022-11-28T01:40:04.259Z,101379.97
2022-11-28T01:42:30.741Z,101374.69
2022-11-28T01:45:14.942Z,101371.47
2022-11-28T01:47:41.665Z,101372.59
2022-11-28T01:50:09.620Z,101373.38
2022-11-28T01:52:37.992Z,101359.97
2022-11-28T01:55:05.840Z,101359.53
2022-11-28T01:57:32.797Z,101362.66
2022-11-28T02:00:03.218Z,101349.16
2022-11-28T02:02:33.844Z,101352.59
2022-11-28T02:05:00.793Z,101347.50
2022-11-28T02:07:27.348Z,101350.00
2022-11-28T02:09:54.182Z,101335.59
2022-11-28T02:12:23.857Z,101341.03
2022-11-28T02:14:50.337Z,101335.53
2022-11-28T02:17:24.274Z,101332.06
2022-11-28T02:20:00.171Z,101324.38
2022-11-28T02:22:35.861Z,101328.31
2022-11-28T02:25:05.279Z,101330.69
2022-11-28T02:27:48.372Z,101327.91
2022-11-28T02:30:17.351Z,101327.00
2022-11-28T02:32:49.733Z,101317.47
2022-11-28T02:35:25.205Z,101327.28
2022-11-28T02:38:17.548Z,101320.09
2022-11-28T02:40:56.452Z,101325.06
2022-11-28T02:43:22.995Z,101315.63
2022-11-28T02:45:52.517Z,101314.03
2022-11-28T02:48:26.731Z,101305.47
2022-11-28T02:50:57.934Z,101298.44
2022-11-28T02:53:26.159Z,101302.16
2022-11-28T02:55:53.470Z,101295.91
2022-11-28T02:58:20.128Z,101292.94
2022-11-28T03:00:47.491Z,101289.75
2022-11-28T03:03:33.253Z,101285.28
2022-11-28T03:06:14.860Z,101291.97
2022-11-28T03:08:44.154Z,101285.44
2022-11-28T03:11:25.787Z,101286.69
2022-11-28T03:13:52.305Z,101282.69
2022-11-28T03:16:34.435Z,101282.22
2022-11-28T03:19:09.813Z,101276.72
2022-11-28T03:21:41.514Z,101281.31
2022-11-28T03:24:15.180Z,101285.88
2022-11-28T03:27:03.991Z,101278.19
2022-11-28T03:29:34.284Z,101273.72
2022-11-28T03:32:04.097Z,101282.84
2022-11-28T03:34:37.546Z,101266.81
2022-11-28T03:37:07.328Z,101267.13
2022-11-28T03:39:37.209Z,101270.78
2022-11-28T03:42:07.987Z,101265.75
2022-11-28T03:44:45.392Z,101268.97
2022-11-28T03:47:12.036Z,101272.66
2022-11-28T03:49:40.611Z,101271.72
2022-11-28T03:52:10.902Z,101263.66
2022-11-28T03:54:46.987Z,101260.56
2022-11-28T03:57:19.299Z,101252.66
2022-11-28T03:59:55.558Z,101257.56
2022-11-28T04:02:31.352Z,101255.88
2022-11-28T04:05:12.097Z,101252.09
2022-11-28T04:07:44.683Z,101248.59
2022-11-28T04:10:14.341Z,101250.63
2022-11-28T04:12:48.205Z,101245.97
2022-11-28T04:15:21.158Z,101247.09
2022-11-28T04:17:59.829Z,101243.44
2022-11-28T04:20:29.224Z,101246.56
2022-11-28T04:22:59.286Z,101239.50
2022-11-28T04:25:26.180Z,101237.91
2022-11-28T04:27:59.688Z,101236.38
2022-11-28T04:30:26.314Z,101242.19
2022-11-28T04:32:56.032Z,101237.09
2022-11-28T04:35:31.507Z,101230.94
2022-11-28T04:37:59.036Z,101223.81
2022-11-28T04:40:27.619Z,101213.13
2022-11-28T04:42:57.726Z,101214.91
2022-11-28T04:45:30.058Z,101218.34
2022-11-28T04:47:56.969Z,101217.41
2022-11-28T04:50:25.435Z,101219.47
2022-11-28T04:52:56.112Z,101222.75
2022-11-28T04:55:22.625Z,101234.56
2022-11-28T04:57:57.042Z,101221.66
2022-11-28T05:00:24.058Z,101220.59
2022-11-28T05:02:51.767Z,101219.13
2022-11-28T05:05:20.467Z,101219.03
2022-11-28T05:07:47.074Z,101222.69
2022-11-28T05:10:14.188Z,101209.63
2022-11-28T05:12:40.767Z,101216.91
2022-11-28T05:15:07.991Z,101211.78
2022-11-28T05:17:39.002Z,101219.31
2022-11-28T05:20:08.738Z,101218.78
2022-11-28T05:22:35.314Z,101223.91
2022-11-28T05:25:01.778Z,101222.44
2022-11-28T05:27:28.807Z,101215.69
2022-11-28T05:29:55.355Z,101217.75
2022-11-28T05:32:22.082Z,101217.19
2022-11-28T05:34:48.587Z,101214.41
2022-11-28T05:37:15.884Z,101213.59
2022-11-28T05:39:42.802Z,101211.66
2022-11-28T05:42:09.583Z,101208.09
2022-11-28T05:44:36.802Z,101198.00
2022-11-28T05:47:03.367Z,101201.06
2022-11-28T05:49:29.822Z,101198.88
2022-11-28T05:51:56.504Z,101197.88
2022-11-28T05:54:23.030Z,101200.56
2022-11-28T05:56:49.803Z,101191.31
2022-11-28T05:59:16.297Z,101181.03
2022-11-28T06:01:42.849Z,101183.09
2022-11-28T06:04:09.588Z,101166.00
2022-11-28T06:06:36.615Z,101175.47
2022-11-28T06:09:04.163Z,101168.53
2022-11-28T06:11:31.345Z,101168.78
2022-11-28T06:13:58.089Z,101161.94
2022-11-28T06:16:26.588Z,101162.50
2022-11-28T06:18:57.913Z,101160.03
2022-11-28T06:21:25.058Z,101151.84
2022-11-28T06:23:54.476Z,101149.06
2022-11-28T06:26:22.311Z,101155.31
2022-11-28T06:28:49.301Z,101151.41
2022-11-28T06:31:18.009Z,101150.81
2022-11-28T06:33:44.681Z,101150.09
2022-11-28T06:36:12.056Z,101151.38
2022-11-28T06:38:39.125Z,101151.47
2022-11-28T06:41:10.185Z,101147.41
2022-11-28T06:43:36.737Z,101156.03
2022-11-28T06:46:04.094Z,101151.78
2022-11-28T06:48:30.767Z,101154.75
2022-11-28T06:51:04.495Z,101149.91
2022-11-28T06:53:31.762Z,101150.97
2022-11-28T06:55:58.694Z,101164.47
2022-11-28T06:58:25.317Z,101155.53
2022-11-28T07:00:51.929Z,101158.84
2022-11-28T07:03:18.491Z,101163.34
2022-11-28T07:05:45.195Z,101161.41
2022-11-28T07:08:12.013Z,101157.13
2022-11-28T07:10:38.621Z,101160.03
2022-11-28T07:13:05.760Z,101147.19
2022-11-28T07:15:32.476Z,101151.00
2022-11-28T07:17:58.988Z,101143.25
2022-11-28T07:20:25.505Z,101141.31
2022-11-28T07:22:52.011Z,101145.97
2022-11-28T07:25:18.622Z,101153.78
2022-11-28T07:27:45.101Z,101147.56
2022-11-28T07:30:11.805Z,101157.06
2022-11-28T07:32:41.589Z,101156.03
2022-11-28T07:35:09.124Z,101148.13
2022-11-28T07:37:36.442Z,101148.63
2022-11-28T07:40:04.114Z,101146.09
2022-11-28T07:42:30.663Z,101135.34
2022-11-28T07:44:57.291Z,101136.06
2022-11-28T07:47:23.849Z,101134.53
2022-11-28T07:49:50.368Z,101135.03
2022-11-28T07:52:16.931Z,101136.72
2022-11-28T07:54:43.444Z,101136.78
2022-11-28T07:57:12.669Z,101147.84
2022-11-28T07:59:39.817Z,101137.50
2022-11-28T08:02:06.767Z,101139.88
2022-11-28T08:04:33.502Z,101140.72
2022-11-28T08:07:00.096Z,101138.75
2022-11-28T08:09:26.999Z,101132.41
2022-11-28T08:11:53.580Z,101136.00
2022-11-28T08:14:20.532Z,101141.47
2022-11-28T08:16:47.263Z,101136.47
2022-11-28T08:19:13.834Z,101121.78
2022-11-28T08:21:40.349Z,101132.97
2022-11-28T08:24:08.247Z,101122.53
2022-11-28T08:26:35.303Z,101121.50
2022-11-28T08:29:02.422Z,101120.69
2022-11-28T08:31:32.718Z,101107.94
2022-11-28T08:34:00.655Z,101114.38
2022-11-28T08:36:29.336Z,101109.94
2022-11-28T08:39:22.915Z,101113.41
2022-11-28T08:41:43.127Z,101113.97
2022-11-28T08:44:09.686Z,101122.72
2022-11-28T08:46:36.786Z,101116.44
2022-11-28T08:49:04.807Z,101127.25
2022-11-28T08:51:31.682Z,101128.25
2022-11-28T08:53:59.701Z,101127.34
2022-11-28T08:56:26.920Z,101131.16
2022-11-28T08:58:53.447Z,101129.94
2022-11-28T09:01:21.031Z,101133.06
2022-11-28T09:03:47.862Z,101130.69
2022-11-28T09:06:14.798Z,101133.44
2022-11-28T09:08:41.288Z,101136.63
2022-11-28T09:11:09.834Z,101138.41
2022-11-28T09:13:36.830Z,101142.97
2022-11-28T09:16:06.132Z,101143.09
2022-11-28T09:18:32.724Z,101136.38
2022-11-28T09:21:00.361Z,101134.19
2022-11-28T09:23:36.668Z,101134.72
2022-11-28T09:26:07.562Z,101132.34
2022-11-28T09:28:37.390Z,101128.13
2022-11-28T09:31:05.216Z,101124.44
2022-11-28T09:33:33.718Z,101123.47
2022-11-28T09:36:08.095Z,101118.22
2022-11-28T09:38:42.038Z,101096.16
2022-11-28T09:41:30.145Z,101097.53
2022-11-28T09:44:08.930Z,101098.19
2022-11-28T09:46:38.333Z,101092.72
2022-11-28T09:49:10.859Z,101094.81
2022-11-28T09:51:43.218Z,101094.81
2022-11-28T09:54:28.981Z,101102.16
2022-11-28T09:56:58.896Z,101088.50
2022-11-28T09:59:29.974Z,101101.56
2022-11-28T10:02:08.691Z,101099.59
2022-11-28T10:04:42.707Z,101107.59
2022-11-28T10:07:28.211Z,101109.56
2022-11-28T10:10:08.206Z,101118.66
2022-11-28T10:12:34.809Z,101119.13
2022-11-28T10:15:21.585Z,101123.34
2022-11-28T10:17:54.555Z,101120.41
2022-11-28T10:23:07.312Z,101119.28
2022-11-28T10:25:35.654Z,101109.22
2022-11-28T10:28:05.209Z,101112.00
2022-11-28T10:30:38.621Z,101095.84
2022-11-28T10:33:12.213Z,101100.53
2022-11-28T10:35:56.809Z,101096.53
2022-11-28T10:38:26.022Z,101088.13
2022-11-28T10:41:08.152Z,101092.38
2022-11-28T10:43:40.535Z,101082.78
2022-11-28T10:46:07.181Z,101079.16
2022-11-28T10:48:40.081Z,101084.91
2022-11-28T10:51:25.032Z,101077.28
2022-11-28T10:54:10.893Z,101082.53
2022-11-28T10:56:44.554Z,101085.66
2022-11-28T10:59:17.050Z,101082.72
2022-11-28T11:01:49.811Z,101075.50
2022-11-28T11:04:21.751Z,101075.16
2022-11-28T11:07:20.004Z,101073.34
2022-11-28T11:09:48.499Z,101076.63
2022-11-28T11:12:19.454Z,101073.88
2022-11-28T11:14:46.005Z,101064.72
2022-11-28T11:17:28.083Z,101076.56
2022-11-28T11:19:57.862Z,101077.91
2022-11-28T11:22:32.442Z,101079.13
2022-11-28T11:25:15.656Z,101072.44
2022-11-28T11:27:49.988Z,101076.47
2022-11-28T11:30:32.606Z,101072.94
2022-11-28T11:33:00.782Z,101084.00
2022-11-28T11:35:29.473Z,101076.63
2022-11-28T11:38:19.232Z,101073.91
2022-11-28T11:40:50.221Z,101069.16
2022-11-28T11:43:30.204Z,101070.16
2022-11-28T11:46:22.858Z,101064.19
2022-11-28T11:48:51.007Z,101061.53
2022-11-28T11:51:24.358Z,101062.19
2022-11-28T11:54:20.804Z,101063.31
2022-11-28T11:56:51.227Z,101056.84
2022-11-28T12:00:15.121Z,101051.75
2022-11-28T12:02:44.901Z,101038.19
2022-11-28T12:05:13.428Z,101036.06
2022-11-28T12:08:00.231Z,101031.47
2022-11-28T12:10:28.278Z,101028.34
2022-11-28T12:12:55.216Z,101027.50
2022-11-28T12:15:27.948Z,101028.22
2022-11-28T12:18:17.639Z,101029.66
2022-11-28T12:20:44.476Z,101024.38
2022-11-28T12:23:29.359Z,101022.25
2022-11-28T12:26:00.894Z,101025.81
2022-11-28T12:28:27.321Z,101022.78
2022-11-28T12:31:02.859Z,101030.69
2022-11-28T12:33:39.159Z,101036.22
2022-11-28T12:36:24.561Z,101024.94
2022-11-28T12:39:09.662Z,101023.94
2022-11-28T12:41:51.384Z,101020.63
2022-11-28T12:44:18.044Z,101022.72
2022-11-28T12:46:47.857Z,101023.28
2022-11-28T12:49:23.834Z,101016.94
2022-11-28T12:51:59.489Z,101020.69
2022-11-28T12:54:34.206Z,101018.41
2022-11-28T12:57:06.474Z,101018.97
2022-11-28T12:59:40.153Z,101014.34
2022-11-28T13:02:26.395Z,101010.63
2022-11-28T13:05:11.762Z,101008.19
2022-11-28T13:07:57.364Z,100999.47
2022-11-28T13:10:44.092Z,101000.09
2022-11-28T13:13:17.760Z,100993.84
2022-11-28T13:16:10.719Z,100990.41
2022-11-28T13:18:40.061Z,100993.44
2022-11-28T13:21:12.732Z,100990.03
2022-11-28T13:23:47.541Z,100989.72
2022-11-28T13:26:14.019Z,100991.00
2022-11-28T13:28:40.876Z,100988.91
2022-11-28T13:31:12.553Z,100986.13
2022-11-28T13:33:48.575Z,100994.44
2022-11-28T13:39:37.577Z,100983.47
2022-11-28T13:42:52.327Z,100972.94
2022-11-28T13:45:07.837Z,100973.22
2022-11-28T13:47:37.721Z,100983.88
2022-11-28T13:50:25.674Z,100974.66
2022-11-28T13:52:59.806Z,100976.19
2022-11-28T13:55:44.963Z,100978.03
2022-11-28T13:58:31.813Z,100977.44
2022-11-28T14:01:04.327Z,100970.69
2022-11-28T14:03:36.593Z,100983.31
2022-11-28T14:06:06.087Z,100964.09
2022-11-28T14:08:36.967Z,100969.47
2022-11-28T14:11:24.091Z,100974.75
2022-11-28T14:14:07.238Z,100974.50
2022-11-28T14:16:37.307Z,100979.94
2022-11-28T14:19:16.114Z,100969.44
2022-11-28T14:21:45.573Z,100974.47
2022-11-28T14:24:15.980Z,100975.50
2022-11-28T14:26:43.558Z,100980.13
2022-11-28T14:29:21.339Z,100976.38
2022-11-28T14:32:07.000Z,100979.22
2022-11-28T14:34:45.487Z,100983.25
2022-11-28T14:37:28.606Z,100979.84
2022-11-28T14:39:56.065Z,100985.25
2022-11-28T14:45:30.931Z,100988.56
2022-11-28T14:48:27.089Z,100987.97
2022-11-28T14:51:00.852Z,100984.34
2022-11-28T14:53:34.583Z,100984.84
2022-11-28T14:56:11.606Z,100996.41
2022-11-28T14:58:38.468Z,100998.13
2022-11-28T15:01:10.264Z,100997.13
2022-11-28T15:03:39.542Z,100999.94
2022-11-28T15:06:09.169Z,101002.38
2022-11-28T15:08:46.113Z,101007.53
2022-11-28T15:11:12.649Z,101000.81
2022-11-28T15:13:39.074Z,101001.19
2022-11-28T15:16:06.736Z,101001.41
2022-11-28T15:18:34.054Z,101001.44
2022-11-28T15:21:02.855Z,101002.28
2022-11-28T15:23:30.651Z,101004.66
2022-11-28T15:25:58.090Z,101005.28
2022-11-28T15:28:28.923Z,101008.56
2022-11-28T15:30:56.688Z,101003.34
2022-11-28T15:33:24.174Z,101004.97
2022-11-28T15:35:54.402Z,101006.94
2022-11-28T15:38:20.960Z,101005.19
2022-11-28T15:40:51.453Z,100998.53
2022-11-28T15:43:18.432Z,100997.50
2022-11-28T15:45:49.080Z,101004.50
2022-11-28T15:48:27.742Z,101004.69
2022-11-28T15:50:54.295Z,100996.13
2022-11-28T15:53:21.148Z,101002.53
2022-11-28T15:55:48.071Z,100998.63
2022-11-28T15:58:30.319Z,101007.25
2022-11-28T16:00:56.796Z,101007.56
2022-11-28T16:03:25.462Z,101006.56
2022-11-28T16:06:02.851Z,101010.50
2022-11-28T16:08:37.037Z,101005.97
2022-11-28T16:11:05.670Z,101005.13
2022-11-28T16:13:33.637Z,101015.00
2022-11-28T16:16:01.692Z,101010.78
2022-11-28T16:18:29.183Z,101011.69
2022-11-28T16:20:56.973Z,101013.13
2022-11-28T16:23:34.524Z,101018.53
2022-11-28T16:26:02.626Z,101016.50
2022-11-28T16:28:41.498Z,101010.22
2022-11-28T16:31:12.372Z,101015.56
2022-11-28T16:33:43.281Z,101024.28
2022-11-28T16:36:15.947Z,101012.84
2022-11-28T16:38:43.486Z,101015.13
2022-11-28T16:41:21.630Z,101008.59
2022-11-28T16:43:50.246Z,101013.81
2022-11-28T16:46:21.593Z,101013.19
2022-11-28T16:48:58.230Z,101012.66
2022-11-28T16:51:29.146Z,101014.88
2022-11-28T16:53:57.438Z,101022.72
2022-11-28T16:56:29.925Z,101020.63
2022-11-28T16:59:11.679Z,101019.00
2022-11-28T17:01:38.565Z,101023.91
2022-11-28T17:04:05.621Z,101019.31
2022-11-28T17:06:39.324Z,101022.66
2022-11-28T17:09:10.762Z,101018.78
2022-11-28T17:11:40.735Z,101011.94
2022-11-28T17:14:13.028Z,101006.00
2022-11-28T17:16:40.551Z,101000.66
2022-11-28T17:19:07.775Z,101003.34
2022-11-28T17:21:38.242Z,101012.06
2022-11-28T17:24:05.278Z,101007.25
2022-11-28T17:26:37.389Z,101004.94
2022-11-28T17:29:03.981Z,101010.63
2022-11-28T17:31:30.593Z,101017.22
2022-11-28T17:33:57.177Z,101018.44
2022-11-28T17:36:23.796Z,101016.22
2022-11-28T17:38:50.452Z,101014.84
2022-11-28T17:41:30.428Z,101018.50
2022-11-28T17:43:57.037Z,101014.88
2022-11-28T17:46:23.480Z,101019.28
2022-11-28T17:48:50.052Z,101022.69
2022-11-28T17:51:17.128Z,101021.56
2022-11-28T17:53:43.664Z,101012.22
2022-11-28T17:56:13.332Z,101013.03
2022-11-28T17:58:39.903Z,101010.75
2022-11-28T18:01:11.065Z,101016.03
2022-11-28T18:03:38.459Z,101011.81
2022-11-28T18:06:05.463Z,101011.28
2022-11-28T18:08:32.045Z,101012.47
2022-11-28T18:11:05.467Z,101016.88
2022-11-28T18:13:32.786Z,101013.72
2022-11-28T18:15:59.466Z,101018.81
2022-11-28T18:18:26.120Z,101015.84
2022-11-28T18:20:52.751Z,101017.09
2022-11-28T18:23:19.321Z,101017.94
2022-11-28T18:25:46.272Z,101017.53
2022-11-28T18:28:18.444Z,101009.50
2022-11-28T18:30:46.193Z,101011.69
2022-11-28T18:33:13.050Z,100990.88
2022-11-28T18:35:39.909Z,100982.31
2022-11-28T18:38:07.709Z,100986.59
2022-11-28T18:40:34.923Z,101012.81
2022-11-28T18:43:05.210Z,101001.31
2022-11-28T18:45:32.542Z,101003.53
2022-11-28T18:48:00.502Z,101008.47
2022-11-28T18:50:27.517Z,100994.91
2022-11-28T18:52:54.541Z,100997.16
2022-11-28T18:55:21.366Z,101003.94
2022-11-28T18:57:47.845Z,100999.19
2022-11-28T19:00:21.791Z,100998.81
2022-11-28T19:02:48.463Z,101010.34
2022-11-28T19:05:15.164Z,100998.38
2022-11-28T19:07:41.770Z,101000.22
2022-11-28T19:10:08.898Z,101014.28
2022-11-28T19:12:35.641Z,101008.47
2022-11-28T19:15:02.976Z,101009.34
2022-11-28T19:17:29.842Z,101003.41
2022-11-28T19:19:56.467Z,100999.41
2022-11-28T19:22:23.017Z,100994.47
2022-11-28T19:24:49.558Z,100998.63
2022-11-28T19:27:16.085Z,101001.03
2022-11-28T19:29:42.998Z,101001.88
2022-11-28T19:32:10.124Z,101007.06
2022-11-28T19:34:36.697Z,101003.63
2022-11-28T19:37:03.238Z,101008.31
2022-11-28T19:39:30.068Z,101011.34
2022-11-28T19:41:57.024Z,101017.59
2022-11-28T19:44:24.861Z,101015.94
2022-11-28T19:46:52.853Z,101008.50
2022-11-28T19:49:21.492Z,101007.38
2022-11-28T19:51:48.101Z,101003.38
2022-11-28T19:54:15.411Z,101008.91
2022-11-28T19:56:42.022Z,101017.75
2022-11-28T19:59:08.556Z,101019.13
2022-11-28T20:01:35.241Z,101013.59
2022-11-28T20:04:01.843Z,101022.44
2022-11-28T20:06:32.451Z,101019.78
2022-11-28T20:08:59.930Z,101021.31
2022-11-28T20:11:28.044Z,101026.88
2022-11-28T20:13:58.700Z,101028.97
2022-11-28T20:16:25.571Z,101029.16
2022-11-28T20:18:52.385Z,101025.38
2022-11-28T20:21:19.773Z,101030.38
2022-11-28T20:23:47.906Z,101028.41
2022-11-28T20:26:15.130Z,101029.25
2022-11-28T20:28:42.120Z,101025.16
2022-11-28T20:31:17.403Z,101025.09
2022-11-28T20:33:43.942Z,101018.72
2022-11-28T20:36:12.171Z,101018.31
2022-11-28T20:38:38.644Z,101026.59
2022-11-28T20:41:06.793Z,101026.59
2022-11-28T20:43:34.245Z,101026.63
2022-11-28T20:46:01.798Z,101028.28
2022-11-28T20:48:28.626Z,101024.81
2022-11-28T20:50:55.110Z,101030.22
2022-11-28T20:53:26.609Z,101033.13
2022-11-28T20:56:10.657Z,101026.63
2022-11-28T20:58:51.465Z,101025.78
2022-11-28T21:01:36.660Z,101023.38
2022-11-28T21:04:24.275Z,101027.31
2022-11-28T21:06:50.820Z,101024.47
2022-11-28T21:09:21.062Z,101023.16
2022-11-28T21:11:57.463Z,101019.97
2022-11-28T21:14:30.291Z,101024.44
2022-11-28T21:16:58.247Z,101013.94
2022-11-28T21:19:40.312Z,101022.56
2022-11-28T21:22:17.537Z,101028.63
2022-11-28T21:24:56.375Z,101018.59
2022-11-28T21:27:25.974Z,101020.59
2022-11-28T21:29:58.930Z,101021.72
2022-11-28T21:32:35.788Z,101015.00
2022-11-28T21:35:04.528Z,101019.81
2022-11-28T21:37:39.166Z,101029.22
2022-11-28T21:40:09.263Z,101025.03
2022-11-28T21:42:44.800Z,101019.88
2022-11-28T21:45:11.291Z,101027.06
2022-11-28T21:47:37.802Z,101013.69
2022-11-28T21:50:04.769Z,101019.00
2022-11-28T21:52:38.898Z,101017.72
2022-11-28T21:55:21.777Z,101021.84
2022-11-28T21:57:57.080Z,101014.28
2022-11-28T22:00:57.488Z,101020.66
2022-11-28T22:03:24.450Z,101015.75
2022-11-28T22:05:52.813Z,101029.47
2022-11-28T22:08:20.372Z,101024.53
2022-11-28T22:10:47.172Z,101024.94
2022-11-28T22:13:13.698Z,101024.78
2022-11-28T22:15:41.616Z,101025.22
2022-11-28T22:18:08.270Z,101029.38
2022-11-28T22:20:38.726Z,101024.81
2022-11-28T22:23:08.300Z,101024.75
2022-11-28T22:25:34.925Z,101027.72
2022-11-28T22:28:01.644Z,101020.41
2022-11-28T22:30:28.341Z,101027.03
2022-11-28T22:32:54.869Z,101020.03
2022-11-28T22:35:21.410Z,101029.09
2022-11-28T22:37:48.161Z,101026.63
2022-11-28T22:40:15.083Z,101026.63
2022-11-28T22:42:41.569Z,101022.25
2022-11-28T22:45:08.376Z,101023.28
2022-11-28T22:47:35.218Z,101029.56
2022-11-28T22:50:01.805Z,101030.25
2022-11-28T22:52:29.269Z,101025.78
2022-11-28T22:54:55.902Z,101023.66
2022-11-28T22:57:25.034Z,101024.28
2022-11-28T22:59:51.526Z,101025.25
2022-11-28T23:02:18.219Z,101022.53
2022-11-28T23:04:45.108Z,101030.06
2022-11-28T23:07:11.690Z,101025.78
2022-11-28T23:09:38.229Z,101022.84
2022-11-28T23:12:04.941Z,101027.13
2022-11-28T23:14:31.524Z,101018.25
2022-11-28T23:16:58.224Z,101028.47
2022-11-28T23:19:24.801Z,101026.91
2022-11-28T23:21:51.324Z,101019.81
2022-11-28T23:24:18.962Z,101027.63
2022-11-28T23:26:45.760Z,101021.78
2022-11-28T23:29:12.660Z,101025.13
2022-11-28T23:31:40.996Z,101019.78
2022-11-28T23:34:08.325Z,101020.84
2022-11-28T23:36:43.101Z,101027.22
2022-11-28T23:39:11.349Z,101020.38
2022-11-28T23:41:37.854Z,101032.13
2022-11-28T23:44:04.701Z,101023.97
2022-11-28T23:46:31.245Z,101029.56
2022-11-28T23:48:57.914Z,101030.50
2022-11-28T23:51:25.880Z,101029.91
2022-11-28T23:53:52.514Z,101026.41
2022-11-28T23:56:20.369Z,101025.38
2022-11-28T23:58:47.185Z,101025.53
